createdAt,value
2019-03-24T00:00:17.152Z,12.23
2019-03-24T00:03:43.002Z,12.22
2019-03-24T00:07:07.352Z,12.15
2019-03-24T00:10:31.335Z,11.96
2019-03-24T00:13:55.529Z,12.07
2019-03-24T00:17:20.208Z,11.94
2019-03-24T00:20:44.259Z,12.10
2019-03-24T00:24:08.246Z,12.16
2019-03-24T00:27:32.308Z,11.96
2019-03-24T00:30:56.449Z,12.00
2019-03-24T00:34:20.569Z,11.84
2019-03-24T00:37:44.891Z,12.01
2019-03-24T00:41:08.951Z,11.86
2019-03-24T00:44:33.014Z,11.83
2019-03-24T00:47:58.352Z,11.86
2019-03-24T00:51:22.512Z,11.87
2019-03-24T00:54:46.458Z,12.01
2019-03-24T00:58:11.156Z,11.93
2019-03-24T01:01:35.074Z,11.88
2019-03-24T01:04:59.443Z,11.84
2019-03-24T01:08:23.374Z,11.93
2019-03-24T01:11:47.704Z,11.80
2019-03-24T01:15:11.902Z,11.62
2019-03-24T01:18:36.030Z,11.66
2019-03-24T01:21:59.992Z,11.43
2019-03-24T01:25:23.982Z,11.58
2019-03-24T01:28:47.907Z,11.34
2019-03-24T01:32:11.944Z,11.39
2019-03-24T01:35:36.072Z,11.51
2019-03-24T01:39:00.044Z,11.31
2019-03-24T01:42:24.163Z,11.26
2019-03-24T01:45:57.937Z,11.39
2019-03-24T01:49:14.063Z,11.42
2019-03-24T01:52:38.074Z,11.18
2019-03-24T01:56:02.473Z,11.26
2019-03-24T01:59:26.861Z,11.24
2019-03-24T02:02:50.796Z,11.26
2019-03-24T02:06:14.786Z,11.29
2019-03-24T02:09:38.761Z,11.25
2019-03-24T02:13:03.101Z,11.23
2019-03-24T02:16:28.113Z,11.09
2019-03-24T02:19:52.042Z,10.99
2019-03-24T02:23:16.275Z,11.11
2019-03-24T02:26:40.380Z,11.00
2019-03-24T02:30:05.363Z,10.87
2019-03-24T02:33:29.981Z,10.98
2019-03-24T02:36:53.980Z,11.12
2019-03-24T02:40:17.935Z,11.05
2019-03-24T02:43:41.836Z,10.90
2019-03-24T02:47:05.780Z,10.66
2019-03-24T02:50:29.887Z,10.93
2019-03-24T02:53:54.066Z,10.78
2019-03-24T02:57:17.995Z,10.92
2019-03-24T03:00:42.998Z,10.81
2019-03-24T03:04:06.948Z,10.90
2019-03-24T03:07:30.881Z,10.74
2019-03-24T03:10:54.764Z,10.67
2019-03-24T03:14:18.817Z,10.74
2019-03-24T03:17:42.903Z,10.81
2019-03-24T03:21:06.931Z,10.87
2019-03-24T03:24:30.858Z,10.75
2019-03-24T03:27:54.728Z,10.66
2019-03-24T03:31:18.754Z,10.77
2019-03-24T03:34:42.662Z,10.82
2019-03-24T03:38:06.668Z,10.74
2019-03-24T03:41:30.655Z,10.83
2019-03-24T03:44:54.823Z,10.89
2019-03-24T03:48:18.876Z,10.82
2019-03-24T03:51:42.891Z,10.66
2019-03-24T03:55:07.077Z,10.62
2019-03-24T03:58:31.124Z,10.71
2019-03-24T04:01:55.501Z,10.56
2019-03-24T04:05:19.430Z,10.68
2019-03-24T04:08:43.419Z,10.64
2019-03-24T04:12:07.332Z,10.49
2019-03-24T04:15:31.232Z,10.48
2019-03-24T04:18:55.409Z,10.49
2019-03-24T04:22:19.843Z,10.52
2019-03-24T04:25:43.776Z,10.45
2019-03-24T04:29:07.895Z,10.56
2019-03-24T04:32:31.927Z,10.50
2019-03-24T04:35:57.059Z,10.55
2019-03-24T04:39:21.195Z,10.58
2019-03-24T04:42:45.135Z,10.45
2019-03-24T04:46:09.115Z,10.50
2019-03-24T04:49:33.088Z,10.42
2019-03-24T04:52:57.016Z,10.44
2019-03-24T04:56:21.298Z,10.35
2019-03-24T04:59:45.336Z,10.43
2019-03-24T05:03:09.427Z,10.47
2019-03-24T05:06:33.632Z,10.51
2019-03-24T05:09:57.607Z,10.43
2019-03-24T05:13:21.504Z,10.47
2019-03-24T05:16:45.705Z,10.33
2019-03-24T05:20:09.925Z,10.35
2019-03-24T05:23:33.986Z,10.18
2019-03-24T05:27:00.135Z,10.19
2019-03-24T05:30:24.051Z,10.11
2019-03-24T05:33:47.982Z,10.31
2019-03-24T05:37:11.858Z,10.22
2019-03-24T05:40:35.813Z,9.92
2019-03-24T05:43:59.764Z,9.97
2019-03-24T05:47:23.708Z,10.02
2019-03-24T05:50:47.863Z,10.14
2019-03-24T05:54:12.895Z,9.77
2019-03-24T05:57:37.361Z,9.91
2019-03-24T06:01:01.440Z,9.94
2019-03-24T06:04:25.764Z,9.65
2019-03-24T06:07:49.905Z,9.62
2019-03-24T06:11:13.949Z,9.57
2019-03-24T06:14:37.918Z,9.28
2019-03-24T06:18:01.886Z,9.26
2019-03-24T06:21:27.264Z,9.28
2019-03-24T06:24:51.847Z,9.31
2019-03-24T06:28:18.119Z,9.25
2019-03-24T06:31:42.421Z,9.30
2019-03-24T06:35:06.812Z,9.27
2019-03-24T06:38:30.854Z,9.30
2019-03-24T06:41:55.065Z,9.24
2019-03-24T06:45:28.033Z,9.27
2019-03-24T06:48:45.072Z,9.22
2019-03-24T06:52:09.188Z,9.29
2019-03-24T06:55:33.786Z,9.40
2019-03-24T06:58:57.715Z,9.37
2019-03-24T07:02:21.591Z,9.43
2019-03-24T07:05:45.599Z,9.63
2019-03-24T07:09:09.502Z,9.51
2019-03-24T07:12:33.613Z,9.69
2019-03-24T07:15:57.880Z,9.41
2019-03-24T07:19:22.347Z,9.57
2019-03-24T07:22:46.977Z,9.69
2019-03-24T07:26:11.206Z,9.96
2019-03-24T07:29:35.395Z,10.02
2019-03-24T07:32:59.816Z,10.15
2019-03-24T07:36:23.762Z,9.91
2019-03-24T07:39:47.689Z,10.12
2019-03-24T07:43:11.539Z,10.23
2019-03-24T07:46:35.539Z,10.38
2019-03-24T07:49:59.575Z,10.12
2019-03-24T07:53:23.608Z,10.49
2019-03-24T07:56:47.946Z,10.64
2019-03-24T08:00:12.591Z,10.77
2019-03-24T08:03:38.727Z,10.90
2019-03-24T08:07:02.961Z,10.81
2019-03-24T08:10:26.869Z,10.99
2019-03-24T08:13:54.054Z,11.17
2019-03-24T08:17:17.207Z,11.24
2019-03-24T08:20:41.173Z,11.20
2019-03-24T08:24:05.103Z,11.32
2019-03-24T08:27:29.012Z,11.47
2019-03-24T08:30:52.966Z,11.41
2019-03-24T08:34:16.904Z,11.15
2019-03-24T08:37:40.794Z,11.49
2019-03-24T08:41:04.682Z,11.69
2019-03-24T08:44:28.571Z,11.84
2019-03-24T08:47:53.672Z,12.17
2019-03-24T08:51:17.571Z,12.25
2019-03-24T08:54:42.001Z,12.46
2019-03-24T08:58:06.162Z,12.57
2019-03-24T09:01:31.521Z,12.78
2019-03-24T09:04:55.489Z,12.91
2019-03-24T09:08:19.935Z,12.50
2019-03-24T09:11:43.964Z,13.54
2019-03-24T09:15:08.220Z,14.03
2019-03-24T09:18:32.174Z,14.43
2019-03-24T09:21:56.754Z,14.44
2019-03-24T09:25:22.539Z,14.11
2019-03-24T09:28:46.664Z,14.46
2019-03-24T09:32:10.733Z,14.65
2019-03-24T09:35:35.227Z,14.64
2019-03-24T09:38:59.495Z,14.96
2019-03-24T09:42:24.003Z,15.13
2019-03-24T09:45:47.894Z,15.61
2019-03-24T09:49:12.218Z,16.07
2019-03-24T09:52:36.101Z,16.03
2019-03-24T09:56:00.013Z,16.62
2019-03-24T09:59:23.942Z,17.11
2019-03-24T10:02:47.856Z,17.12
2019-03-24T10:06:11.783Z,16.00
2019-03-24T10:09:35.709Z,18.00
2019-03-24T10:12:59.689Z,18.70
2019-03-24T10:16:23.615Z,19.95
2019-03-24T10:19:47.523Z,20.30
2019-03-24T10:23:11.473Z,20.64
2019-03-24T10:26:38.695Z,20.37
2019-03-24T10:30:02.767Z,22.54
2019-03-24T10:33:27.363Z,21.18
2019-03-24T10:36:51.315Z,22.96
2019-03-24T10:40:15.380Z,23.35
2019-03-24T10:43:39.380Z,22.66
2019-03-24T10:47:03.311Z,21.74
2019-03-24T10:50:33.289Z,22.86
2019-03-24T10:53:57.972Z,24.11
2019-03-24T10:57:21.954Z,20.71
2019-03-24T11:00:47.158Z,21.01
2019-03-24T11:04:11.497Z,23.68
2019-03-24T11:07:35.574Z,24.59
2019-03-24T11:11:00.945Z,24.49
2019-03-24T11:14:24.929Z,24.21
2019-03-24T11:17:49.644Z,21.04
2019-03-24T11:21:18.551Z,24.09
2019-03-24T11:24:42.691Z,25.09
2019-03-24T11:28:06.747Z,22.40
2019-03-24T11:31:30.710Z,23.32
2019-03-24T11:34:54.608Z,22.34
2019-03-24T11:38:18.735Z,24.13
2019-03-24T11:41:42.874Z,22.04
2019-03-24T11:45:08.154Z,23.15
2019-03-24T11:48:32.058Z,23.62
2019-03-24T11:51:55.936Z,23.98
2019-03-24T11:55:20.005Z,24.09
2019-03-24T11:58:44.178Z,24.02
2019-03-24T12:02:08.108Z,24.33
2019-03-24T12:05:32.106Z,25.06
2019-03-24T12:08:56.037Z,23.35
2019-03-24T12:12:19.905Z,24.76
2019-03-24T12:15:43.842Z,25.27
2019-03-24T12:19:07.744Z,26.29
2019-03-24T12:22:31.712Z,24.03
2019-03-24T12:25:55.646Z,24.72
2019-03-24T12:29:19.578Z,25.01
2019-03-24T12:32:43.529Z,22.75
2019-03-24T12:36:07.418Z,22.51
2019-03-24T12:39:31.291Z,22.68
2019-03-24T12:42:55.385Z,22.15
2019-03-24T12:46:19.910Z,22.59
2019-03-24T12:49:43.823Z,23.52
2019-03-24T12:53:07.702Z,23.17
2019-03-24T12:56:31.723Z,21.80
2019-03-24T12:59:56.111Z,21.72
2019-03-24T13:03:20.173Z,21.48
2019-03-24T13:06:44.237Z,21.31
2019-03-24T13:10:10.756Z,21.20
2019-03-24T13:13:35.168Z,21.16
2019-03-24T13:16:59.115Z,21.04
2019-03-24T13:20:36.519Z,22.82
2019-03-24T13:23:49.073Z,22.27
2019-03-24T13:27:13.038Z,22.21
2019-03-24T13:30:37.038Z,23.72
2019-03-24T13:34:00.987Z,25.22
2019-03-24T13:37:25.337Z,24.09
2019-03-24T13:40:49.242Z,26.21
2019-03-24T13:44:13.603Z,26.56
2019-03-24T13:47:37.635Z,27.76
2019-03-24T13:51:01.923Z,26.35
2019-03-24T13:54:25.919Z,27.47
2019-03-24T13:57:49.816Z,27.54
2019-03-24T14:01:14.314Z,25.49
2019-03-24T14:04:38.220Z,25.78
2019-03-24T14:08:02.223Z,26.82
2019-03-24T14:11:26.364Z,26.83
2019-03-24T14:14:50.307Z,26.96
2019-03-24T14:18:14.917Z,27.31
2019-03-24T14:21:38.912Z,26.32
2019-03-24T14:25:03.576Z,23.16
2019-03-24T14:28:27.746Z,21.70
2019-03-24T14:31:51.722Z,24.38
2019-03-24T14:35:15.703Z,24.63
2019-03-24T14:38:40.104Z,25.86
2019-03-24T14:42:04.440Z,26.08
2019-03-24T14:45:28.386Z,26.23
2019-03-24T14:48:52.409Z,24.62
2019-03-24T14:52:16.463Z,25.14
2019-03-24T14:55:40.337Z,24.97
2019-03-24T14:59:04.207Z,27.63
2019-03-24T15:02:28.191Z,25.54
2019-03-24T15:05:52.104Z,25.29
2019-03-24T15:09:16.060Z,25.80
2019-03-24T15:12:40.238Z,25.37
2019-03-24T15:16:04.153Z,26.31
2019-03-24T15:19:28.159Z,25.86
2019-03-24T15:22:52.057Z,25.81
2019-03-24T15:26:15.984Z,25.04
2019-03-24T15:29:40.307Z,25.22
2019-03-24T15:33:04.392Z,25.58
2019-03-24T15:36:28.475Z,26.24
2019-03-24T15:39:52.400Z,25.89
2019-03-24T15:43:16.574Z,25.47
2019-03-24T15:46:40.945Z,26.70
2019-03-24T15:50:07.827Z,26.76
2019-03-24T15:53:31.759Z,27.78
2019-03-24T15:56:55.652Z,27.95
2019-03-24T16:00:41.670Z,27.63
2019-03-24T16:04:05.608Z,28.29
2019-03-24T16:07:29.525Z,26.99
2019-03-24T16:10:53.446Z,26.26
2019-03-24T16:14:20.332Z,27.26
2019-03-24T16:17:44.433Z,26.95
2019-03-24T16:21:08.579Z,27.03
2019-03-24T16:24:33.047Z,26.67
2019-03-24T16:27:57.085Z,27.00
2019-03-24T16:31:21.431Z,26.47
2019-03-24T16:34:45.479Z,25.52
2019-03-24T16:38:09.482Z,25.40
2019-03-24T16:41:33.479Z,25.90
2019-03-24T16:44:57.557Z,25.23
2019-03-24T16:48:21.630Z,25.80
2019-03-24T16:51:45.612Z,24.24
2019-03-24T16:55:13.313Z,23.13
2019-03-24T16:58:37.485Z,20.84
2019-03-24T17:02:02.105Z,19.50
2019-03-24T17:05:27.370Z,17.95
2019-03-24T17:08:51.285Z,17.47
2019-03-24T17:12:15.253Z,17.26
2019-03-24T17:15:40.232Z,17.53
2019-03-24T17:19:04.467Z,17.72
2019-03-24T17:22:30.230Z,16.87
2019-03-24T17:25:54.230Z,16.83
2019-03-24T17:29:18.416Z,16.28
2019-03-24T17:32:42.486Z,16.19
2019-03-24T17:36:06.416Z,15.85
2019-03-24T17:39:30.509Z,15.83
2019-03-24T17:42:55.021Z,15.44
2019-03-24T17:46:19.581Z,15.40
2019-03-24T17:49:43.846Z,15.43
2019-03-24T17:53:08.041Z,15.38
2019-03-24T17:56:32.106Z,14.92
2019-03-24T17:59:56.620Z,14.60
2019-03-24T18:03:20.778Z,14.66
2019-03-24T18:06:44.856Z,14.45
2019-03-24T18:10:10.093Z,14.38
2019-03-24T18:13:34.218Z,14.16
2019-03-24T18:16:58.271Z,13.92
2019-03-24T18:20:40.253Z,14.17
2019-03-24T18:24:04.730Z,13.74
2019-03-24T18:27:28.795Z,13.73
2019-03-24T18:30:52.821Z,13.54
2019-03-24T18:34:19.872Z,13.59
2019-03-24T18:37:43.953Z,13.62
2019-03-24T18:41:07.946Z,13.37
2019-03-24T18:44:35.072Z,13.22
2019-03-24T18:47:59.624Z,13.38
2019-03-24T18:51:23.709Z,13.01
2019-03-24T18:54:47.644Z,12.97
2019-03-24T18:58:12.482Z,12.94
2019-03-24T19:01:37.038Z,12.93
2019-03-24T19:05:04.744Z,12.91
2019-03-24T19:08:28.721Z,12.48
2019-03-24T19:11:52.797Z,12.47
2019-03-24T19:15:17.206Z,12.89
2019-03-24T19:18:41.469Z,12.33
2019-03-24T19:22:06.638Z,12.63
2019-03-24T19:25:30.969Z,12.47
2019-03-24T19:28:56.740Z,12.10
2019-03-24T19:32:22.033Z,11.98
2019-03-24T19:35:46.053Z,11.87
2019-03-24T19:39:10.610Z,11.87
2019-03-24T19:42:35.163Z,11.85
2019-03-24T19:45:59.754Z,12.19
2019-03-24T19:49:23.983Z,12.06
2019-03-24T19:52:48.048Z,11.65
2019-03-24T19:56:12.330Z,11.83
2019-03-24T19:59:36.684Z,12.06
2019-03-24T20:03:01.668Z,11.76
2019-03-24T20:06:25.856Z,11.80
2019-03-24T20:09:50.598Z,11.79
2019-03-24T20:13:14.801Z,11.88
2019-03-24T20:16:39.815Z,11.85
2019-03-24T20:20:06.389Z,11.83
2019-03-24T20:23:30.755Z,11.46
2019-03-24T20:26:55.250Z,11.50
2019-03-24T20:30:20.709Z,11.31
2019-03-24T20:33:46.169Z,11.40
2019-03-24T20:37:10.215Z,11.45
2019-03-24T20:40:34.317Z,11.55
2019-03-24T20:44:01.379Z,11.19
2019-03-24T20:47:25.490Z,10.96
2019-03-24T20:50:50.213Z,11.21
2019-03-24T20:54:14.296Z,11.15
2019-03-24T20:57:38.475Z,10.88
2019-03-24T21:01:03.042Z,10.84
2019-03-24T21:04:27.083Z,11.14
2019-03-24T21:07:51.488Z,11.00
2019-03-24T21:11:15.732Z,10.50
2019-03-24T21:14:39.695Z,10.46
2019-03-24T21:18:03.730Z,10.41
2019-03-24T21:21:27.710Z,10.27
2019-03-24T21:24:51.664Z,10.19
2019-03-24T21:28:15.764Z,10.18
2019-03-24T21:31:39.845Z,10.04
2019-03-24T21:35:04.608Z,9.69
2019-03-24T21:38:28.617Z,9.69
2019-03-24T21:41:52.639Z,9.59
2019-03-24T21:45:16.557Z,9.48
2019-03-24T21:48:40.588Z,9.43
2019-03-24T21:52:04.538Z,9.30
2019-03-24T21:55:29.989Z,9.27
2019-03-24T21:58:53.927Z,9.13
2019-03-24T22:02:17.924Z,8.98
2019-03-24T22:05:41.834Z,9.02
2019-03-24T22:09:07.841Z,8.88
2019-03-24T22:12:31.875Z,9.04
2019-03-24T22:15:55.871Z,8.85
2019-03-24T22:19:19.743Z,8.62
2019-03-24T22:22:43.654Z,8.56
2019-03-24T22:26:07.644Z,8.57
2019-03-24T22:29:31.558Z,8.51
2019-03-24T22:32:55.503Z,8.67
2019-03-24T22:36:19.382Z,8.55
2019-03-24T22:39:43.316Z,8.84
2019-03-24T22:43:07.445Z,8.48
2019-03-24T22:46:31.312Z,8.62
2019-03-24T22:49:55.627Z,8.52
2019-03-24T22:53:19.518Z,8.53
2019-03-24T22:56:43.410Z,8.86
2019-03-24T23:00:15.480Z,8.90
2019-03-24T23:03:41.308Z,8.83
2019-03-24T23:07:05.288Z,8.90
2019-03-24T23:10:29.288Z,9.20
2019-03-24T23:13:53.240Z,9.09
2019-03-24T23:17:17.160Z,8.66
2019-03-24T23:20:41.105Z,8.74
2019-03-24T23:24:14.940Z,8.69
2019-03-24T23:27:31.109Z,9.04
2019-03-24T23:30:55.534Z,8.90
2019-03-24T23:34:19.539Z,8.80
2019-03-24T23:37:43.583Z,8.73
2019-03-24T23:41:07.631Z,9.01
2019-03-24T23:44:32.029Z,8.37
2019-03-24T23:47:55.974Z,8.64
2019-03-24T23:51:21.174Z,8.54
2019-03-24T23:54:45.107Z,8.09
2019-03-24T23:58:09.008Z,8.39
